Time;durP1;ratioP1;P1;durP2;ratioP2;P2;SDS_P1;SDS_P2;PMS_P1;PMS_P2;Temp;Humidity;BMP_temperature;BMP_pressure;BME280_temperature;BME280_humidity;BME280_pressure;Samples;Min_cycle;Max_cycle;Signal;HPM_P1;HPM_P2
2022/07/30 00:02:09;;;;;;;0.00;0.00;;;22.90;99.90;;;;;;4950566;28;20274;-73
2022/07/30 00:04:36;;;;;;;0.00;0.00;;;22.90;99.90;;;;;;4962380;28;20259;-73
2022/07/30 00:07:03;;;;;;;0.00;0.00;;;22.90;99.90;;;;;;4955335;28;20222;-73
2022/07/30 00:09:30;;;;;;;0.00;0.00;;;22.90;99.90;;;;;;4963339;28;20202;-73
2022/07/30 00:11:57;;;;;;;0.00;0.00;;;23.00;99.90;;;;;;4960001;28;20198;-73
2022/07/30 00:14:26;;;;;;;0.00;0.00;;;23.00;99.90;;;;;;5038513;28;20271;-73
2022/07/30 00:16:53;;;;;;;0.00;0.00;;;22.90;99.90;;;;;;4968081;28;20202;-73
2022/07/30 00:19:20;;;;;;;0.00;0.00;;;22.90;99.90;;;;;;4982490;28;20195;-73
2022/07/30 00:21:47;;;;;;;0.00;0.00;;;22.90;99.90;;;;;;4941751;28;20339;-74
2022/07/30 00:24:14;;;;;;;0.00;0.00;;;22.90;99.90;;;;;;4941489;28;20249;-71
2022/07/30 00:26:41;;;;;;;0.00;0.00;;;22.90;99.90;;;;;;4949562;28;20293;-72
2022/07/30 00:29:08;;;;;;;0.00;0.00;;;22.90;99.90;;;;;;5039240;28;20285;-74
2022/07/30 00:31:36;;;;;;;0.00;0.00;;;22.90;99.90;;;;;;4951907;28;20697;-75
2022/07/30 00:34:03;;;;;;;0.00;0.00;;;22.80;99.90;;;;;;4950534;28;20233;-74
2022/07/30 00:36:30;;;;;;;0.00;0.00;;;22.80;99.90;;;;;;4946404;28;20203;-73
2022/07/30 00:38:57;;;;;;;0.00;0.00;;;22.80;99.90;;;;;;4966235;28;20234;-73
2022/07/30 00:41:25;;;;;;;0.00;0.00;;;22.80;99.90;;;;;;4972658;28;20200;-73
2022/07/30 00:43:52;;;;;;;0.00;0.00;;;22.70;99.90;;;;;;4951463;28;20214;-72
2022/07/30 00:46:19;;;;;;;0.00;0.00;;;22.70;99.90;;;;;;4952665;28;20310;-73
2022/07/30 00:48:47;;;;;;;0.00;0.00;;;22.70;99.90;;;;;;4972314;28;20223;-72
2022/07/30 00:51:14;;;;;;;0.00;0.00;;;22.60;99.90;;;;;;4973474;28;20652;-71
2022/07/30 00:53:41;;;;;;;0.00;0.00;;;22.50;99.90;;;;;;4963337;28;20213;-71
2022/07/30 00:56:08;;;;;;;0.00;0.00;;;22.50;99.90;;;;;;5039097;28;20207;-72
2022/07/30 00:58:35;;;;;;;0.00;0.00;;;22.50;99.90;;;;;;4964176;28;20221;-71
2022/07/30 01:01:03;;;;;;;0.00;0.00;;;22.40;99.90;;;;;;5036718;28;20311;-72
2022/07/30 01:03:30;;;;;;;0.00;0.00;;;22.40;99.90;;;;;;4942358;28;20206;-72
2022/07/30 01:05:58;;;;;;;0.00;0.00;;;22.30;99.90;;;;;;4945239;28;20230;-72
2022/07/30 01:08:25;;;;;;;0.00;0.00;;;22.30;99.90;;;;;;4948518;28;20228;-71
2022/07/30 01:10:52;;;;;;;0.00;0.00;;;22.30;99.90;;;;;;4969012;28;20243;-72
2022/07/30 01:13:20;;;;;;;0.00;0.00;;;22.30;99.90;;;;;;4955974;28;20228;-70
2022/07/30 01:15:47;;;;;;;0.00;0.00;;;22.20;99.90;;;;;;4946904;28;20207;-72
2022/07/30 01:18:16;;;;;;;0.00;0.00;;;22.10;99.90;;;;;;4962232;28;20254;-71
2022/07/30 01:20:55;;;;;;;0.00;0.00;;;22.10;99.90;;;;;;4940129;28;20225;-71
2022/07/30 01:23:31;;;;;;;0.00;0.00;;;22.10;99.90;;;;;;4974600;28;20271;-71
2022/07/30 01:26:04;;;;;;;0.00;0.00;;;22.00;99.90;;;;;;4950325;28;20230;-71
2022/07/30 01:28:35;;;;;;;0.00;0.00;;;22.00;99.90;;;;;;5041129;28;20241;-72
2022/07/30 01:31:03;;;;;;;0.00;0.00;;;21.90;99.90;;;;;;4944491;28;20203;-74
2022/07/30 01:33:32;;;;;;;0.00;0.00;;;21.90;99.90;;;;;;5038353;28;20198;-73
2022/07/30 01:36:01;;;;;;;0.00;0.00;;;21.90;99.90;;;;;;4942072;28;20203;-71
2022/07/30 01:38:31;;;;;;;0.00;0.00;;;21.80;99.90;;;;;;4961156;28;20252;-74
2022/07/30 01:41:01;;;;;;;0.00;0.00;;;21.80;99.90;;;;;;4946796;28;20201;-72
2022/07/30 01:43:29;;;;;;;0.00;0.00;;;21.80;99.90;;;;;;4966832;28;20214;-71
2022/07/30 01:45:57;;;;;;;0.00;0.00;;;21.70;99.90;;;;;;4994425;28;20298;-72
2022/07/30 01:48:26;;;;;;;0.00;0.00;;;21.70;99.90;;;;;;4963999;28;20241;-71
2022/07/30 01:50:56;;;;;;;0.00;0.00;;;21.70;99.90;;;;;;4950701;28;20207;-71
2022/07/30 01:53:26;;;;;;;0.00;0.00;;;21.70;99.90;;;;;;4943791;28;20206;-72
2022/07/30 01:55:55;;;;;;;0.00;0.00;;;21.60;99.90;;;;;;5046185;28;20201;-71
2022/07/30 01:58:27;;;;;;;0.00;0.00;;;21.60;99.90;;;;;;4972092;28;20226;-71
2022/07/30 02:00:58;;;;;;;0.00;0.00;;;21.50;99.90;;;;;;4963161;28;20301;-72
2022/07/30 02:03:26;;;;;;;0.00;0.00;;;21.50;99.90;;;;;;4943917;28;20202;-72
2022/07/30 02:05:58;;;;;;;0.00;0.00;;;21.50;99.90;;;;;;4962206;28;20233;-72
2022/07/30 02:08:34;;;;;;;0.00;0.00;;;21.50;99.90;;;;;;4944464;28;20287;-72
2022/07/30 02:11:06;;;;;;;0.00;0.00;;;21.40;99.90;;;;;;4948585;28;20216;-72
2022/07/30 02:13:42;;;;;;;0.00;0.00;;;21.40;99.90;;;;;;5038427;28;20291;-72
2022/07/30 02:16:15;;;;;;;0.00;0.00;;;21.30;99.90;;;;;;4962767;28;20228;-72
2022/07/30 02:18:50;;;;;;;0.00;0.00;;;21.30;99.90;;;;;;4945055;28;20304;-71
2022/07/30 02:21:20;;;;;;;0.00;0.00;;;21.30;99.90;;;;;;5034983;28;20209;-72
2022/07/30 02:23:49;;;;;;;0.00;0.00;;;21.30;99.90;;;;;;5029955;28;20288;-71
2022/07/30 02:26:20;;;;;;;0.00;0.00;;;21.20;99.90;;;;;;4970300;28;20237;-71
2022/07/30 02:28:55;;;;;;;0.00;0.00;;;21.20;99.90;;;;;;4952148;28;20225;-71
2022/07/30 02:31:26;;;;;;;0.00;0.00;;;21.20;99.90;;;;;;4991958;28;20216;-71
2022/07/30 02:34:00;;;;;;;0.00;0.00;;;21.20;99.90;;;;;;4954144;28;20232;-72
2022/07/30 02:36:28;;;;;;;0.00;0.00;;;21.20;99.90;;;;;;4972697;28;20195;-72
2022/07/30 02:38:58;;;;;;;0.00;0.00;;;21.10;99.90;;;;;;4949991;28;20222;-71
2022/07/30 02:41:28;;;;;;;0.00;0.00;;;21.00;99.90;;;;;;4964807;28;20199;-71
2022/07/30 02:43:57;;;;;;;0.00;0.00;;;21.00;99.90;;;;;;4947781;28;20206;-72
2022/07/30 02:46:26;;;;;;;0.00;0.00;;;21.00;99.90;;;;;;4950197;28;20222;-71
2022/07/30 02:49:21;;;;;;;0.00;0.00;;;20.90;99.90;;;;;;4957332;28;20586;-71
2022/07/30 02:51:50;;;;;;;0.00;0.00;;;20.80;99.90;;;;;;4950405;28;20193;-71
2022/07/30 02:54:20;;;;;;;0.00;0.00;;;20.80;99.90;;;;;;4947653;28;20210;-71
2022/07/30 02:56:49;;;;;;;0.00;0.00;;;20.70;99.90;;;;;;4966645;28;20189;-72
2022/07/30 02:59:19;;;;;;;0.00;0.00;;;20.60;99.90;;;;;;4939344;28;20297;-72
2022/07/30 03:01:48;;;;;;;0.00;0.00;;;20.60;99.90;;;;;;4952288;28;20244;-72
2022/07/30 03:04:18;;;;;;;0.00;0.00;;;20.50;99.90;;;;;;4950244;28;20209;-72
2022/07/30 03:06:46;;;;;;;0.00;0.00;;;20.40;99.90;;;;;;4976884;28;20262;-72
2022/07/30 03:09:16;;;;;;;0.00;0.00;;;20.40;99.90;;;;;;4946230;28;20229;-72
2022/07/30 03:11:44;;;;;;;0.00;0.00;;;20.40;99.90;;;;;;4947233;28;20201;-73
2022/07/30 03:14:12;;;;;;;0.00;0.00;;;20.30;99.90;;;;;;4946858;28;20212;-73
2022/07/30 03:16:44;;;;;;;0.00;0.00;;;20.30;99.90;;;;;;4959541;28;20205;-72
2022/07/30 03:19:12;;;;;;;0.00;0.00;;;20.20;99.90;;;;;;4945996;28;20218;-72
2022/07/30 03:21:41;;;;;;;0.00;0.00;;;20.10;99.90;;;;;;4965832;28;20205;-73
2022/07/30 03:24:11;;;;;;;0.00;0.00;;;20.10;99.90;;;;;;5036263;28;20255;-73
2022/07/30 03:26:40;;;;;;;0.00;0.00;;;20.10;99.90;;;;;;4965690;28;20233;-73
2022/07/30 03:29:09;;;;;;;0.00;0.00;;;20.10;99.90;;;;;;4969490;28;20691;-73
2022/07/30 03:31:38;;;;;;;0.00;0.00;;;20.00;99.90;;;;;;4974934;28;20303;-73
2022/07/30 03:34:09;;;;;;;0.00;0.00;;;;;;;;;;4950205;28;20291;-72
2022/07/30 03:36:38;;;;;;;0.00;0.00;;;19.80;99.90;;;;;;4968974;28;20215;-72
2022/07/30 03:39:07;;;;;;;0.00;0.00;;;19.80;99.90;;;;;;4949133;28;20210;-73
2022/07/30 03:41:36;;;;;;;0.00;0.00;;;19.70;99.90;;;;;;4968213;28;20213;-73
2022/07/30 03:44:04;;;;;;;0.00;0.00;;;19.60;99.90;;;;;;4962585;28;20230;-73
2022/07/30 03:46:32;;;;;;;0.00;0.00;;;19.60;99.90;;;;;;5031946;28;20221;-71
2022/07/30 03:49:00;;;;;;;0.00;0.00;;;19.60;99.90;;;;;;4945516;28;20202;-73
2022/07/30 03:51:29;;;;;;;0.00;0.00;;;19.60;99.90;;;;;;4952477;28;20207;-72
2022/07/30 03:53:57;;;;;;;0.00;0.00;;;19.60;99.90;;;;;;4967654;28;20294;-72
2022/07/30 03:56:47;;;;;;;0.00;0.00;;;19.50;99.90;;;;;;4947879;28;20198;-71
2022/07/30 03:59:43;;;;;;;0.00;0.00;;;19.40;99.90;;;;;;4964408;28;20295;-72
2022/07/30 04:02:11;;;;;;;0.00;0.00;;;19.50;99.90;;;;;;5038313;28;20296;-72
2022/07/30 04:04:55;;;;;;;0.00;0.00;;;19.50;99.90;;;;;;4953417;28;20289;-72
2022/07/30 04:07:24;;;;;;;0.00;0.00;;;19.50;99.90;;;;;;4965744;28;20240;-72
2022/07/30 04:09:52;;;;;;;0.00;0.00;;;19.40;99.90;;;;;;4944204;28;20221;-71
2022/07/30 04:12:31;;;;;;;0.00;0.00;;;19.50;99.90;;;;;;5036311;28;20205;-71
2022/07/30 04:14:59;;;;;;;0.00;0.00;;;;;;;;;;4955216;28;20284;-70
2022/07/30 04:17:30;;;;;;;0.00;0.00;;;;;;;;;;4957294;28;20214;-71
2022/07/30 04:20:00;;;;;;;0.00;0.00;;;;;;;;;;5040287;28;20209;-71
2022/07/30 04:22:31;;;;;;;0.00;0.00;;;;;;;;;;4950091;28;20198;-71
2022/07/30 04:25:00;;;;;;;0.00;0.00;;;;;;;;;;4962877;28;20201;-72
2022/07/30 04:27:27;;;;;;;0.00;0.00;;;;;;;;;;4955649;28;20288;-71
2022/07/30 04:29:55;;;;;;;0.00;0.00;;;19.30;99.90;;;;;;4955805;28;20211;-72
2022/07/30 04:32:23;;;;;;;0.00;0.00;;;19.60;99.90;;;;;;4940454;28;20209;-72
2022/07/30 04:35:28;;;;;;;0.00;0.00;;;19.60;99.90;;;;;;5003160;28;20340;-71
2022/07/30 04:38:15;;;;;;;0.00;0.00;;;19.50;99.90;;;;;;5005552;28;20372;-71
2022/07/30 04:40:47;;;;;;;0.00;0.00;;;19.20;99.90;;;;;;4956764;28;20203;-71
2022/07/30 04:43:14;;;;;;;0.00;0.00;;;19.40;99.90;;;;;;4968455;28;20202;-71
2022/07/30 04:45:42;;;;;;;0.00;0.00;;;19.50;99.90;;;;;;4969394;28;20225;-72
2022/07/30 04:48:11;;;;;;;0.00;0.00;;;19.40;99.90;;;;;;4972133;28;20234;-72
2022/07/30 04:50:57;;;;;;;0.00;0.00;;;19.30;99.90;;;;;;4944545;28;20209;-72
2022/07/30 04:53:28;;;;;;;0.00;0.00;;;19.40;99.90;;;;;;5043599;28;20202;-71
2022/07/30 04:56:00;;;;;;;0.00;0.00;;;;;;;;;;4944362;28;20243;-72
2022/07/30 04:58:30;;;;;;;0.00;0.00;;;;;;;;;;4966762;28;20226;-72
2022/07/30 05:00:58;;;;;;;0.00;0.00;;;19.50;99.90;;;;;;4961277;28;20190;-71
2022/07/30 05:03:31;;;;;;;0.00;0.00;;;19.40;99.90;;;;;;4945928;28;20195;-71
2022/07/30 05:05:59;;;;;;;0.00;0.00;;;;;;;;;;4950833;28;20320;-71
2022/07/30 05:08:32;;;;;;;0.00;0.00;;;;;;;;;;4960069;28;20243;-72
2022/07/30 05:11:02;;;;;;;0.00;0.00;;;;;;;;;;4943502;28;20210;-71
2022/07/30 05:13:30;;;;;;;0.00;0.00;;;;;;;;;;5031594;28;20218;-71
2022/07/30 05:15:57;;;;;;;0.00;0.00;;;18.80;99.90;;;;;;4949825;28;20201;-70
2022/07/30 05:18:25;;;;;;;0.00;0.00;;;19.60;99.90;;;;;;4956803;28;20560;-71
2022/07/30 05:20:53;;;;;;;0.00;0.00;;;19.70;99.90;;;;;;4950634;28;20678;-71
2022/07/30 05:23:27;;;;;;;0.00;0.00;;;19.70;99.90;;;;;;4943746;28;20198;-71
2022/07/30 05:26:12;;;;;;;0.00;0.00;;;19.60;99.90;;;;;;4951445;28;20222;-72
2022/07/30 05:28:43;;;;;;;0.00;0.00;;;19.60;99.90;;;;;;5030648;28;20224;-72
2022/07/30 05:31:12;;;;;;;0.00;0.00;;;19.60;99.90;;;;;;4949497;28;20206;-72
2022/07/30 05:33:41;;;;;;;0.00;0.00;;;19.60;99.90;;;;;;4945802;28;20297;-73
2022/07/30 05:36:10;;;;;;;0.00;0.00;;;19.80;99.90;;;;;;4960410;28;20214;-72
2022/07/30 05:38:38;;;;;;;0.00;0.00;;;19.80;99.90;;;;;;4949064;28;20248;-72
2022/07/30 05:41:26;;;;;;;0.00;0.00;;;19.70;99.90;;;;;;4962467;28;20221;-72
2022/07/30 05:44:02;;;;;;;0.00;0.00;;;19.70;99.90;;;;;;4968712;28;20206;-72
2022/07/30 05:46:31;;;;;;;0.00;0.00;;;19.80;99.90;;;;;;4965517;28;20225;-73
2022/07/30 05:48:59;;;;;;;0.00;0.00;;;19.70;99.90;;;;;;4958277;28;20231;-71
2022/07/30 05:51:28;;;;;;;0.00;0.00;;;19.50;99.90;;;;;;4961790;28;20209;-72
2022/07/30 05:53:55;;;;;;;0.00;0.00;;;19.40;99.90;;;;;;4949352;28;20258;-72
2022/07/30 05:57:02;;;;;;;0.00;0.00;;;;;;;;;;4962750;28;20314;-72
2022/07/30 05:59:32;;;;;;;0.00;0.00;;;;;;;;;;4964817;28;20198;-72
2022/07/30 06:02:08;;;;;;;0.00;0.00;;;;;;;;;;4951513;28;20210;-71
2022/07/30 06:05:02;;;;;;;0.00;0.00;;;;;;;;;;4946513;28;20220;-72
2022/07/30 06:07:29;;;;;;;0.00;0.00;;;;;;;;;;4974086;28;20277;-72
2022/07/30 06:10:00;;;;;;;0.00;0.00;;;;;;;;;;4942714;28;20206;-73
2022/07/30 06:12:30;;;;;;;0.00;0.00;;;;;;;;;;4953556;28;20326;-73
2022/07/30 06:14:58;;;;;;;0.00;0.00;;;;;;;;;;4939950;28;20202;-73
2022/07/30 06:17:30;;;;;;;0.00;0.00;;;;;;;;;;4966616;28;20219;-73
2022/07/30 06:20:06;;;;;;;0.00;0.00;;;;;;;;;;5033010;28;20282;-73
2022/07/30 06:22:45;;;;;;;0.00;0.00;;;;;;;;;;4949386;28;20206;-73
2022/07/30 06:25:21;;;;;;;0.00;0.00;;;;;;;;;;4952558;28;20210;-73
2022/07/30 06:27:50;;;;;;;0.00;0.00;;;;;;;;;;4942221;28;20234;-74
2022/07/30 06:30:17;;;;;;;0.00;0.00;;;;;;;;;;4961477;28;20272;-73
2022/07/30 06:32:46;;;;;;;0.00;0.00;;;;;;;;;;4940726;28;20201;-73
2022/07/30 06:35:15;;;;;;;0.00;0.00;;;;;;;;;;4969147;28;20288;-73
2022/07/30 06:37:43;;;;;;;0.00;0.00;;;;;;;;;;4970686;28;20295;-73
2022/07/30 06:40:12;;;;;;;0.00;0.00;;;;;;;;;;4952225;28;20203;-74
2022/07/30 06:43:00;;;;;;;0.00;0.00;;;;;;;;;;4964652;28;20220;-74
2022/07/30 06:45:50;;;;;;;0.00;0.00;;;;;;;;;;4957443;28;20268;-74
2022/07/30 06:48:24;;;;;;;0.00;0.00;;;;;;;;;;4961268;28;20237;-73
2022/07/30 06:50:53;;;;;;;0.00;0.00;;;;;;;;;;4948116;28;20602;-73
2022/07/30 06:53:20;;;;;;;0.00;0.00;;;;;;;;;;4954121;28;20202;-73
2022/07/30 06:56:21;;;;;;;0.00;0.00;;;;;;;;;;4965608;28;20775;-73
2022/07/30 06:58:54;;;;;;;0.00;0.00;;;;;;;;;;4946016;28;20225;-73
2022/07/30 07:01:42;;;;;;;0.00;0.00;;;;;;;;;;4970090;28;20217;-73
2022/07/30 07:04:10;;;;;;;0.00;0.00;;;;;;;;;;4953456;28;20274;-73
2022/07/30 07:06:39;;;;;;;0.00;0.00;;;;;;;;;;5028585;28;20210;-73
2022/07/30 07:09:08;;;;;;;0.00;0.00;;;;;;;;;;4945495;28;20234;-72
2022/07/30 07:11:57;;;;;;;0.00;0.00;;;;;;;;;;4943054;28;20245;-73
2022/07/30 07:14:25;;;;;;;0.00;0.00;;;;;;;;;;4954411;28;20217;-72
2022/07/30 07:16:53;;;;;;;0.00;0.00;;;;;;;;;;5032235;28;20202;-73
2022/07/30 07:19:39;;;;;;;0.00;0.00;;;;;;;;;;4964561;28;20340;-73
2022/07/30 07:22:06;;;;;;;0.00;0.00;;;;;;;;;;4955538;28;20268;-74
2022/07/30 07:24:34;;;;;;;0.00;0.00;;;;;;;;;;4975144;28;20218;-73
2022/07/30 07:27:12;;;;;;;0.00;0.00;;;;;;;;;;4952870;28;20249;-72
2022/07/30 07:29:43;;;;;;;0.00;0.00;;;;;;;;;;4947427;28;20209;-72
2022/07/30 07:32:12;;;;;;;0.00;0.00;;;;;;;;;;4942426;28;20297;-72
2022/07/30 07:34:40;;;;;;;0.00;0.00;;;;;;;;;;4947162;28;20222;-72
2022/07/30 07:37:08;;;;;;;0.00;0.00;;;;;;;;;;4955057;28;20246;-72
2022/07/30 07:39:36;;;;;;;0.00;0.00;;;;;;;;;;4958317;28;20210;-72
2022/07/30 07:42:04;;;;;;;0.00;0.00;;;;;;;;;;4942440;28;20226;-72
2022/07/30 07:44:31;;;;;;;0.00;0.00;;;;;;;;;;4957837;28;20209;-72
2022/07/30 07:47:00;;;;;;;0.00;0.00;;;;;;;;;;4945319;28;20225;-73
2022/07/30 07:49:32;;;;;;;0.00;0.00;;;;;;;;;;4965405;28;20320;-73
2022/07/30 07:52:00;;;;;;;0.00;0.00;;;;;;;;;;4965631;28;20237;-73
2022/07/30 07:54:28;;;;;;;0.00;0.00;;;;;;;;;;4984822;28;20241;-73
2022/07/30 07:56:55;;;;;;;0.00;0.00;;;;;;;;;;4969355;28;20302;-73
2022/07/30 07:59:27;;;;;;;0.00;0.00;;;;;;;;;;4963045;28;20213;-70
2022/07/30 08:01:55;;;;;;;0.00;0.00;;;18.70;99.90;;;;;;4942459;28;20293;-74
2022/07/30 08:04:48;;;;;;;0.00;0.00;;;18.60;99.90;;;;;;4972437;28;20194;-71
2022/07/30 08:07:34;;;;;;;0.00;0.00;;;18.50;99.90;;;;;;4953594;28;20306;-72
2022/07/30 08:10:32;;;;;;;0.00;0.00;;;18.50;99.90;;;;;;5000633;28;20231;-71
2022/07/30 08:13:17;;;;;;;0.00;0.00;;;18.50;99.90;;;;;;4962929;28;20206;-71
2022/07/30 08:16:13;;;;;;;0.00;0.00;;;18.30;99.90;;;;;;4963735;28;20214;-72
2022/07/30 08:19:03;;;;;;;0.00;0.00;;;18.50;99.90;;;;;;4961281;28;20291;-73
2022/07/30 08:21:41;;;;;;;0.00;0.00;;;18.50;99.90;;;;;;5027133;28;20202;-74
2022/07/30 08:24:08;;;;;;;0.00;0.00;;;18.60;99.90;;;;;;4938860;28;20276;-74
2022/07/30 08:26:36;;;;;;;0.00;0.00;;;18.70;99.90;;;;;;4959482;28;20207;-71
2022/07/30 08:29:03;;;;;;;0.00;0.00;;;18.70;99.90;;;;;;4957389;28;20206;-71
2022/07/30 08:31:30;;;;;;;0.00;0.00;;;18.80;99.90;;;;;;4959252;28;20209;-72
2022/07/30 08:33:57;;;;;;;0.00;0.00;;;18.90;99.90;;;;;;4948753;28;20218;-72
2022/07/30 08:36:25;;;;;;;0.00;0.00;;;19.00;99.90;;;;;;4960187;28;20301;-70
2022/07/30 08:38:55;;;;;;;0.00;0.00;;;19.00;99.90;;;;;;4936876;28;20230;-71
2022/07/30 08:41:22;;;;;;;0.00;0.00;;;19.00;99.90;;;;;;4957557;28;20221;-70
2022/07/30 08:43:51;;;;;;;0.00;0.00;;;19.10;99.90;;;;;;4947552;28;20206;-71
2022/07/30 08:46:24;;;;;;;0.00;0.00;;;;;;;;;;4958359;28;20209;-70
2022/07/30 08:49:14;;;;;;;0.00;0.00;;;19.10;99.90;;;;;;4968558;28;20202;-72
2022/07/30 08:51:42;;;;;;;0.00;0.00;;;19.20;99.90;;;;;;4975894;28;20202;-71
2022/07/30 08:54:31;;;;;;;0.00;0.00;;;19.20;99.90;;;;;;4973950;28;20701;-72
2022/07/30 08:56:58;;;;;;;0.00;0.00;;;19.40;99.90;;;;;;4959165;28;20210;-71
2022/07/30 08:59:26;;;;;;;0.00;0.00;;;19.40;99.90;;;;;;4953267;28;20198;-71
2022/07/30 09:01:53;;;;;;;0.00;0.00;;;19.50;99.90;;;;;;4949736;28;20245;-71
2022/07/30 09:04:20;;;;;;;0.00;0.00;;;19.60;99.90;;;;;;4943962;28;20203;-71
2022/07/30 09:06:48;;;;;;;0.00;0.00;;;19.60;99.90;;;;;;4950244;28;20205;-72
2022/07/30 09:09:15;;;;;;;0.00;0.00;;;19.70;99.90;;;;;;4953000;28;20207;-71
2022/07/30 09:11:44;;;;;;;0.00;0.00;;;19.60;99.90;;;;;;5028659;28;20254;-71
2022/07/30 09:14:13;;;;;;;0.00;0.00;;;19.70;99.90;;;;;;5033464;28;20645;-72
2022/07/30 09:16:40;;;;;;;0.00;0.00;;;19.70;99.90;;;;;;4959963;28;20267;-72
2022/07/30 09:19:14;;;;;;;0.00;0.00;;;19.70;99.90;;;;;;4944123;28;20285;-71
2022/07/30 09:21:42;;;;;;;0.00;0.00;;;19.80;99.90;;;;;;5031924;28;20300;-71
2022/07/30 09:24:24;;;;;;;0.00;0.00;;;19.80;99.90;;;;;;4953491;28;20206;-71
2022/07/30 09:27:12;;;;;;;0.00;0.00;;;19.90;99.90;;;;;;4955932;28;20233;-71
2022/07/30 09:29:56;;;;;;;0.00;0.00;;;19.90;99.90;;;;;;4957421;28;20207;-73
2022/07/30 09:32:51;;;;;;;0.00;0.00;;;20.00;99.90;;;;;;4959062;28;20213;-73
2022/07/30 09:35:39;;;;;;;0.00;0.00;;;20.10;99.90;;;;;;4956980;28;20206;-73
2022/07/30 09:38:10;;;;;;;0.00;0.00;;;20.10;99.90;;;;;;4955285;28;20211;-73
2022/07/30 09:40:53;;;;;;;0.00;0.00;;;20.20;99.90;;;;;;4959530;28;20700;-73
2022/07/30 09:43:49;;;;;;;0.00;0.00;;;20.20;99.90;;;;;;4963418;28;20250;-73
2022/07/30 09:46:23;;;;;;;0.00;0.00;;;20.40;99.90;;;;;;4960272;28;20210;-73
2022/07/30 09:48:50;;;;;;;0.00;0.00;;;20.50;99.90;;;;;;4952797;28;20607;-73
2022/07/30 09:51:17;;;;;;;0.00;0.00;;;20.50;99.90;;;;;;4958904;28;20194;-73
2022/07/30 09:53:55;;;;;;;0.00;0.00;;;20.60;99.90;;;;;;4953172;28;20945;-73
2022/07/30 09:56:24;;;;;;;0.00;0.00;;;20.70;99.90;;;;;;5017926;28;20210;-73
2022/07/30 09:58:53;;;;;;;0.00;0.00;;;20.80;99.90;;;;;;4945029;28;20230;-73
2022/07/30 10:01:20;;;;;;;0.07;0.07;;;20.90;99.90;;;;;;4947227;28;20202;-73
2022/07/30 10:03:48;;;;;;;0.10;0.10;;;21.00;99.90;;;;;;4957208;28;20280;-74
2022/07/30 10:06:35;;;;;;;0.00;0.00;;;21.00;99.90;;;;;;4953053;28;20259;-74
2022/07/30 10:09:28;;;;;;;0.00;0.00;;;21.10;99.90;;;;;;4955555;28;20209;-75
2022/07/30 10:11:57;;;;;;;0.00;0.00;;;21.20;99.90;;;;;;4957699;28;20212;-74
2022/07/30 10:14:30;;;;;;;0.00;0.00;;;21.30;99.90;;;;;;4968443;28;20209;-73
2022/07/30 10:16:58;;;;;;;0.00;0.00;;;21.30;99.90;;;;;;4957182;28;20222;-75
2022/07/30 10:19:26;;;;;;;0.00;0.00;;;21.40;99.90;;;;;;4945669;28;20260;-74
2022/07/30 10:21:56;;;;;;;0.00;0.00;;;21.40;99.90;;;;;;4953578;28;20202;-73
2022/07/30 10:24:44;;;;;;;0.00;0.00;;;21.50;99.90;;;;;;4957013;28;20205;-73
2022/07/30 10:27:21;;;;;;;0.00;0.00;;;21.50;99.90;;;;;;4953259;28;20234;-73
2022/07/30 10:30:06;;;;;;;0.00;0.00;;;21.50;99.90;;;;;;4954449;28;20214;-73
2022/07/30 10:32:37;;;;;;;0.00;0.00;;;21.50;99.90;;;;;;5023858;28;20294;-74
2022/07/30 10:35:35;;;;;;;0.00;0.00;;;21.60;99.90;;;;;;4955143;28;20256;-72
2022/07/30 10:38:02;;;;;;;0.00;0.00;;;21.60;99.90;;;;;;4971695;28;20223;-72
2022/07/30 10:40:35;;;;;;;0.00;0.00;;;21.70;99.90;;;;;;4956608;28;20227;-73
2022/07/30 10:43:22;;;;;;;0.00;0.00;;;21.80;99.90;;;;;;4941874;28;20203;-73
2022/07/30 10:45:57;;;;;;;0.00;0.00;;;21.70;99.90;;;;;;5023715;28;20348;-73
2022/07/30 10:48:26;;;;;;;0.00;0.00;;;21.70;99.90;;;;;;4949921;28;20622;-72
2022/07/30 10:50:54;;;;;;;0.00;0.00;;;21.80;99.90;;;;;;4960989;28;20209;-72
2022/07/30 10:53:38;;;;;;;0.00;0.00;;;21.80;99.90;;;;;;4951047;28;20217;-72
2022/07/30 10:56:15;;;;;;;0.00;0.00;;;21.80;99.90;;;;;;4950495;28;20203;-73
2022/07/30 10:58:57;;;;;;;0.00;0.00;;;21.70;99.90;;;;;;4955723;28;20209;-72
2022/07/30 11:01:46;;;;;;;0.00;0.00;;;21.70;99.90;;;;;;4961691;28;20218;-73
2022/07/30 11:04:18;;;;;;;0.00;0.00;;;21.60;99.90;;;;;;4963859;28;20209;-73
2022/07/30 11:06:46;;;;;;;0.00;0.00;;;21.60;99.90;;;;;;4956250;28;20207;-73
2022/07/30 11:09:35;;;;;;;0.00;0.00;;;21.60;99.90;;;;;;5032582;28;20284;-73
2022/07/30 11:12:02;;;;;;;0.00;0.00;;;21.60;99.90;;;;;;4959878;28;20210;-73
2022/07/30 11:14:58;;;;;;;0.00;0.00;;;21.70;99.90;;;;;;4954973;28;20225;-71
2022/07/30 11:17:26;;;;;;;0.00;0.00;;;21.80;99.90;;;;;;4949885;28;20218;-71
2022/07/30 11:20:10;;;;;;;0.00;0.00;;;21.80;99.90;;;;;;4954047;28;20239;-74
2022/07/30 11:22:39;;;;;;;0.00;0.00;;;21.80;99.90;;;;;;5033642;28;20214;-74
2022/07/30 11:25:08;;;;;;;0.00;0.00;;;21.90;99.90;;;;;;4978633;28;20305;-72
2022/07/30 11:27:38;;;;;;;0.00;0.00;;;22.00;99.90;;;;;;4967157;28;20600;-71
2022/07/30 11:30:26;;;;;;;0.00;0.00;;;22.00;99.90;;;;;;4944504;28;20293;-72
2022/07/30 11:32:56;;;;;;;0.00;0.00;;;22.00;99.90;;;;;;4950721;28;20210;-72
2022/07/30 11:35:25;;;;;;;0.00;0.00;;;22.10;99.90;;;;;;4957944;28;20233;-73
2022/07/30 11:38:06;;;;;;;0.00;0.00;;;22.10;99.90;;;;;;4956412;28;20210;-73
2022/07/30 11:44:28;;;;;;;0.00;0.00;;;22.20;99.90;;;;;;4928310;28;20247;-72
2022/07/30 11:46:56;;;;;;;0.00;0.00;;;22.30;99.90;;;;;;4911212;28;20226;-72
2022/07/30 11:49:24;;;;;;;0.00;0.00;;;22.30;99.90;;;;;;4943915;28;20233;-73
2022/07/30 11:51:51;;;;;;;0.00;0.00;;;22.40;99.90;;;;;;4942578;28;20238;-73
2022/07/30 11:54:19;;;;;;;0.00;0.00;;;22.50;99.90;;;;;;4969604;28;20264;-73
2022/07/30 11:56:51;;;;;;;0.00;0.00;;;22.50;99.90;;;;;;4958958;28;20247;-72
2022/07/30 11:59:52;;;;;;;0.00;0.00;;;22.60;99.90;;;;;;4965452;28;20194;-73
2022/07/30 12:06:42;;;;;;;0.00;0.00;;;22.90;99.90;;;;;;4987530;28;20205;-75
2022/07/30 12:09:12;;;;;;;0.00;0.00;;;23.00;99.90;;;;;;4979201;28;20770;-73
2022/07/30 12:11:40;;;;;;;0.00;0.00;;;23.00;99.90;;;;;;4953261;28;20281;-73
2022/07/30 12:14:07;;;;;;;0.00;0.00;;;23.10;99.90;;;;;;4948806;28;20195;-75
2022/07/30 12:16:36;;;;;;;0.00;0.00;;;23.20;99.90;;;;;;4959150;28;20286;-74
2022/07/30 12:19:04;;;;;;;0.00;0.00;;;23.20;99.90;;;;;;4966125;28;20207;-75
2022/07/30 12:21:32;;;;;;;0.00;0.00;;;23.20;99.90;;;;;;4950663;28;20213;-75
2022/07/30 12:27:20;;;;;;;0.00;0.00;;;23.30;99.90;;;;;;5115950;27;20729;-74
2022/07/30 12:29:54;;;;;;;0.00;0.00;;;23.40;99.90;;;;;;5096112;28;20274;-74
2022/07/30 12:32:21;;;;;;;0.00;0.00;;;23.50;99.90;;;;;;5093023;28;20243;-73
2022/07/30 12:35:02;;;;;;;0.00;0.00;;;23.50;99.90;;;;;;5103163;22;20225;-74
2022/07/30 12:37:36;;;;;;;0.00;0.00;;;23.60;99.90;;;;;;5085871;28;20667;-74
2022/07/30 12:43:50;;;;;;;0.00;0.00;;;23.70;99.90;;;;;;5089517;28;20296;-73
2022/07/30 12:46:19;;;;;;;0.00;0.00;;;;;;;;;;5074454;28;20230;-72
2022/07/30 12:48:56;;;;;;;0.00;0.00;;;24.00;99.90;;;;;;5070600;28;20232;-71
2022/07/30 12:51:24;;;;;;;0.00;0.00;;;24.00;99.90;;;;;;5074130;28;20220;-70
2022/07/30 12:53:52;;;;;;;0.00;0.00;;;;;;;;;;5071041;28;20202;-71
2022/07/30 12:56:24;;;;;;;0.00;0.00;;;;;;;;;;5073406;28;20214;-73
2022/07/30 12:59:22;;;;;;;0.00;0.00;;;;;;;;;;5070177;28;20256;-72
2022/07/30 13:01:59;;;;;;;0.00;0.00;;;;;;;;;;4997926;28;20205;-72
2022/07/30 13:04:50;;;;;;;0.00;0.00;;;;;;;;;;5087154;28;20222;-72
2022/07/30 13:07:22;;;;;;;0.00;0.00;;;;;;;;;;5066432;28;20210;-73
2022/07/30 13:10:07;;;;;;;0.00;0.00;;;;;;;;;;5069488;28;20242;-71
2022/07/30 13:15:24;;;;;;;0.00;0.00;;;;;;;;;;5069576;28;20222;-71
2022/07/30 13:17:59;;;;;;;0.00;0.00;;;;;;;;;;5073284;28;20194;-71
2022/07/30 13:20:27;;;;;;;0.00;0.00;;;;;;;;;;5064626;28;20209;-72
2022/07/30 13:22:54;;;;;;;0.00;0.00;;;;;;;;;;5062017;28;20279;-75
2022/07/30 13:25:22;;;;;;;0.00;0.00;;;;;;;;;;5067721;28;20233;-76
2022/07/30 13:27:49;;;;;;;0.00;0.00;;;;;;;;;;5071468;28;20220;-73
2022/07/30 13:31:09;;;;;;;0.00;0.00;;;25.40;99.90;;;;;;5086734;28;20199;-77
2022/07/30 13:33:53;;;;;;;0.00;0.00;;;25.80;99.90;;;;;;5068391;28;20194;-72
2022/07/30 13:36:21;;;;;;;0.00;0.00;;;;;;;;;;5071227;28;20714;-72
2022/07/30 13:38:48;;;;;;;0.00;0.00;;;;;;;;;;5050839;28;20202;-73
2022/07/30 13:41:17;;;;;;;0.00;0.00;;;;;;;;;;5060735;28;20245;-73
2022/07/30 13:43:45;;;;;;;0.00;0.00;;;;;;;;;;5059351;28;20309;-73
2022/07/30 13:46:12;;;;;;;0.00;0.00;;;;;;;;;;5056730;28;20222;-72
2022/07/30 13:48:40;;;;;;;0.00;0.00;;;;;;;;;;5059003;28;20223;-73
2022/07/30 13:51:09;;;;;;;0.00;0.00;;;;;;;;;;5046641;28;20202;-74
2022/07/30 13:53:36;;;;;;;0.00;0.00;;;;;;;;;;5051249;28;20643;-73
2022/07/30 13:56:04;;;;;;;0.00;0.00;;;;;;;;;;5054816;28;20218;-73
2022/07/30 13:58:32;;;;;;;0.00;0.00;;;;;;;;;;5058747;28;20209;-73
2022/07/30 14:00:59;;;;;;;0.00;0.00;;;25.60;99.90;;;;;;5057798;28;20289;-71
2022/07/30 14:03:26;;;;;;;0.00;0.00;;;25.70;99.90;;;;;;5058333;28;20207;-72